createdAt,value
2023-02-17T00:00:39.375Z,100.00
2023-02-17T00:03:20.987Z,100.00
2023-02-17T00:05:50.951Z,100.00
2023-02-17T00:08:18.225Z,100.00
2023-02-17T00:10:45.479Z,100.00
2023-02-17T00:13:12.432Z,100.00
2023-02-17T00:15:39.886Z,100.00
2023-02-17T00:18:06.815Z,100.00
2023-02-17T00:20:34.272Z,100.00
2023-02-17T00:23:01.162Z,100.00
2023-02-17T00:25:28.344Z,100.00
2023-02-17T00:27:55.291Z,100.00
2023-02-17T00:30:23.171Z,100.00
2023-02-17T00:32:50.096Z,100.00
2023-02-17T00:35:17.383Z,100.00
2023-02-17T00:37:45.736Z,100.00
2023-02-17T00:40:13.759Z,100.00
2023-02-17T00:42:43.177Z,100.00
2023-02-17T00:45:10.371Z,100.00
2023-02-17T00:47:37.227Z,100.00
2023-02-17T00:50:04.893Z,100.00
2023-02-17T00:52:31.837Z,100.00
2023-02-17T00:54:58.996Z,100.00
2023-02-17T00:57:26.472Z,100.00
2023-02-17T00:59:56.821Z,100.00
2023-02-17T01:02:23.750Z,100.00
2023-02-17T01:04:53.526Z,100.00
2023-02-17T01:07:22.763Z,100.00
2023-02-17T01:09:50.457Z,100.00
2023-02-17T01:12:17.383Z,100.00
2023-02-17T01:14:44.601Z,100.00
2023-02-17T01:17:11.557Z,100.00
2023-02-17T01:19:38.747Z,100.00
2023-02-17T01:22:07.775Z,100.00
2023-02-17T01:24:35.254Z,100.00
2023-02-17T01:27:03.094Z,100.00
2023-02-17T01:29:30.254Z,100.00
2023-02-17T01:31:59.757Z,100.00
2023-02-17T01:34:30.014Z,100.00
2023-02-17T01:36:56.933Z,100.00
2023-02-17T01:39:24.295Z,100.00
2023-02-17T01:41:51.240Z,100.00
2023-02-17T01:44:22.022Z,100.00
2023-02-17T01:46:52.155Z,100.00
2023-02-17T01:49:30.779Z,100.00
2023-02-17T01:52:04.026Z,100.00
2023-02-17T01:54:36.104Z,100.00
2023-02-17T01:57:03.324Z,100.00
2023-02-17T01:59:31.204Z,100.00
2023-02-17T02:02:03.249Z,100.00
2023-02-17T02:04:32.661Z,100.00
2023-02-17T02:06:59.768Z,100.00
2023-02-17T02:09:33.118Z,100.00
2023-02-17T02:12:00.330Z,100.00
2023-02-17T02:14:31.852Z,100.00
2023-02-17T02:16:58.794Z,100.00
2023-02-17T02:19:42.848Z,100.00
2023-02-17T02:22:10.890Z,100.00
2023-02-17T02:24:58.671Z,100.00
2023-02-17T02:27:25.563Z,100.00
2023-02-17T02:29:52.687Z,100.00
2023-02-17T02:32:25.704Z,100.00
2023-02-17T02:35:01.063Z,100.00
2023-02-17T02:37:32.537Z,100.00
2023-02-17T02:40:01.398Z,100.00
2023-02-17T02:42:31.250Z,100.00
2023-02-17T02:44:58.580Z,100.00
2023-02-17T02:47:44.549Z,100.00
2023-02-17T02:50:19.589Z,100.00
2023-02-17T02:53:06.436Z,100.00
2023-02-17T02:55:39.872Z,100.00
2023-02-17T02:58:12.882Z,100.00
2023-02-17T03:00:48.876Z,100.00
2023-02-17T03:03:26.364Z,100.00
2023-02-17T03:05:57.338Z,100.00
2023-02-17T03:08:43.186Z,100.00
2023-02-17T03:11:10.468Z,100.00
2023-02-17T03:13:41.114Z,100.00
2023-02-17T03:16:14.638Z,100.00
2023-02-17T03:18:44.534Z,100.00
2023-02-17T03:21:15.709Z,100.00
2023-02-17T03:23:43.421Z,100.00
2023-02-17T03:26:10.634Z,100.00
2023-02-17T03:28:37.575Z,100.00
2023-02-17T03:31:04.837Z,100.00
2023-02-17T03:33:31.806Z,100.00
2023-02-17T03:35:59.039Z,100.00
2023-02-17T03:38:25.909Z,100.00
2023-02-17T03:40:53.852Z,100.00
2023-02-17T03:43:20.808Z,100.00
2023-02-17T03:45:47.977Z,100.00
2023-02-17T03:48:17.241Z,100.00
2023-02-17T03:50:44.861Z,100.00
2023-02-17T03:53:12.147Z,100.00
2023-02-17T03:55:39.313Z,100.00
2023-02-17T03:58:06.179Z,100.00
2023-02-17T04:00:33.345Z,100.00
2023-02-17T04:03:00.515Z,100.00
2023-02-17T04:05:27.802Z,100.00
2023-02-17T04:07:54.600Z,100.00
2023-02-17T04:10:21.753Z,100.00
2023-02-17T04:12:48.647Z,100.00
2023-02-17T04:15:18.395Z,100.00
2023-02-17T04:17:45.272Z,100.00
2023-02-17T04:20:12.638Z,100.00
2023-02-17T04:22:39.552Z,100.00
2023-02-17T04:25:06.814Z,100.00
2023-02-17T04:27:33.671Z,100.00
2023-02-17T04:30:00.883Z,100.00
2023-02-17T04:32:27.833Z,100.00
2023-02-17T04:34:55.031Z,100.00
2023-02-17T04:37:22.084Z,100.00
2023-02-17T04:39:49.302Z,100.00
2023-02-17T04:42:16.150Z,100.00
2023-02-17T04:44:43.350Z,100.00
2023-02-17T04:47:10.224Z,100.00
2023-02-17T04:49:37.424Z,100.00
2023-02-17T04:52:04.512Z,100.00
2023-02-17T04:54:31.665Z,100.00
2023-02-17T04:56:58.585Z,100.00
2023-02-17T04:59:25.904Z,100.00
2023-02-17T05:01:55.119Z,100.00
2023-02-17T05:04:22.377Z,100.00
2023-02-17T05:06:49.282Z,100.00
2023-02-17T05:09:16.441Z,100.00
2023-02-17T05:11:43.294Z,100.00
2023-02-17T05:14:10.546Z,100.00
2023-02-17T05:16:37.540Z,100.00
2023-02-17T05:19:04.748Z,100.00
2023-02-17T05:21:31.781Z,100.00
2023-02-17T05:23:59.284Z,100.00
2023-02-17T05:26:26.385Z,100.00
2023-02-17T05:28:53.754Z,100.00
2023-02-17T05:31:20.799Z,100.00
2023-02-17T05:33:48.075Z,100.00
2023-02-17T05:36:15.220Z,100.00
2023-02-17T05:38:42.511Z,100.00
2023-02-17T05:41:09.443Z,100.00
2023-02-17T05:43:36.671Z,100.00
2023-02-17T05:46:04.367Z,100.00
2023-02-17T05:48:32.209Z,100.00
2023-02-17T05:50:59.132Z,100.00
2023-02-17T05:53:26.683Z,100.00
2023-02-17T05:55:53.554Z,100.00
2023-02-17T05:58:20.856Z,100.00
2023-02-17T06:00:48.328Z,100.00
2023-02-17T06:03:15.921Z,100.00
2023-02-17T06:05:45.460Z,100.00
2023-02-17T06:08:12.666Z,100.00
2023-02-17T06:10:39.806Z,100.00
2023-02-17T06:13:06.961Z,100.00
2023-02-17T06:15:34.018Z,100.00
2023-02-17T06:18:01.449Z,100.00
2023-02-17T06:20:28.327Z,100.00
2023-02-17T06:22:58.457Z,100.00
2023-02-17T06:25:25.369Z,100.00
2023-02-17T06:27:54.360Z,100.00
2023-02-17T06:30:21.656Z,100.00
2023-02-17T06:32:48.914Z,100.00
2023-02-17T06:35:15.831Z,100.00
2023-02-17T06:37:43.080Z,100.00
2023-02-17T06:40:10.548Z,100.00
2023-02-17T06:42:37.820Z,100.00
2023-02-17T06:45:06.201Z,100.00
2023-02-17T06:47:36.805Z,100.00
2023-02-17T06:50:03.765Z,100.00
2023-02-17T06:52:31.481Z,100.00
2023-02-17T06:54:58.567Z,100.00
2023-02-17T06:57:28.474Z,100.00
2023-02-17T06:59:55.376Z,100.00
2023-02-17T07:02:25.039Z,100.00
2023-02-17T07:04:52.074Z,100.00
2023-02-17T07:07:19.335Z,96.12
2023-02-17T07:09:46.220Z,92.71
2023-02-17T07:12:13.634Z,88.67
2023-02-17T07:14:40.582Z,85.92
2023-02-17T07:17:07.761Z,82.44
2023-02-17T07:19:34.748Z,66.82
2023-02-17T07:22:02.677Z,63.32
2023-02-17T07:24:29.730Z,50.70
2023-02-17T07:26:57.172Z,45.21
2023-02-17T07:29:24.170Z,43.95
2023-02-17T07:31:51.492Z,46.00
2023-02-17T07:34:18.553Z,45.93
2023-02-17T07:36:45.851Z,47.14
2023-02-17T07:39:13.001Z,49.22
2023-02-17T07:41:42.478Z,50.86
2023-02-17T07:44:13.701Z,51.31
2023-02-17T07:46:40.943Z,52.31
2023-02-17T07:49:10.121Z,52.76
2023-02-17T07:51:37.458Z,53.00
2023-02-17T07:54:04.435Z,53.65
2023-02-17T07:56:33.802Z,52.89
2023-02-17T07:59:00.898Z,53.37
2023-02-17T08:01:28.075Z,52.67
2023-02-17T08:03:56.123Z,52.67
2023-02-17T08:06:24.529Z,53.36
2023-02-17T08:09:13.128Z,53.60
2023-02-17T08:11:59.621Z,53.65
2023-02-17T08:14:28.039Z,53.80
2023-02-17T08:16:55.796Z,53.69
2023-02-17T08:19:22.747Z,54.66
2023-02-17T08:21:50.062Z,56.09
2023-02-17T08:24:16.976Z,56.98
2023-02-17T08:26:47.156Z,58.49
2023-02-17T08:29:14.139Z,60.86
2023-02-17T08:31:41.833Z,62.86
2023-02-17T08:34:09.831Z,66.81
2023-02-17T08:36:40.090Z,69.59
2023-02-17T08:39:10.746Z,70.38
2023-02-17T08:41:38.752Z,72.70
2023-02-17T08:44:10.677Z,73.83
2023-02-17T08:46:38.235Z,79.75
2023-02-17T08:49:05.743Z,91.46
2023-02-17T08:51:36.296Z,100.00
2023-02-17T08:54:04.608Z,100.00
2023-02-17T08:56:34.726Z,100.00
2023-02-17T08:59:01.679Z,100.00
2023-02-17T09:01:29.290Z,100.00
2023-02-17T09:03:57.277Z,100.00
2023-02-17T09:06:24.624Z,100.00
2023-02-17T09:08:51.636Z,100.00
2023-02-17T09:11:20.901Z,100.00
2023-02-17T09:13:50.578Z,100.00
2023-02-17T09:16:20.811Z,100.00
2023-02-17T09:18:47.907Z,100.00
2023-02-17T09:21:15.180Z,100.00
2023-02-17T09:23:44.757Z,100.00
2023-02-17T09:26:13.180Z,100.00
2023-02-17T09:28:40.759Z,100.00
2023-02-17T09:31:11.232Z,100.00
2023-02-17T09:33:41.350Z,100.00
2023-02-17T09:36:10.181Z,100.00
2023-02-17T09:38:41.810Z,100.00
2023-02-17T09:41:15.201Z,100.00
2023-02-17T09:43:42.870Z,100.00
2023-02-17T09:46:13.182Z,100.00
2023-02-17T09:48:43.586Z,100.00
2023-02-17T09:51:16.161Z,100.00
2023-02-17T09:53:48.637Z,100.00
2023-02-17T09:56:19.698Z,100.00
2023-02-17T09:58:48.883Z,100.00
2023-02-17T10:01:18.277Z,100.00
2023-02-17T10:03:48.290Z,100.00
2023-02-17T10:06:20.986Z,100.00
2023-02-17T10:08:51.520Z,100.00
2023-02-17T10:11:23.683Z,100.00
2023-02-17T10:13:52.101Z,100.00
2023-02-17T10:16:22.944Z,100.00
2023-02-17T10:18:58.150Z,100.00
2023-02-17T10:21:31.252Z,100.00
2023-02-17T10:23:58.672Z,100.00
2023-02-17T10:26:45.300Z,100.00
2023-02-17T10:29:34.589Z,100.00
2023-02-17T10:32:32.029Z,100.00
2023-02-17T10:35:01.976Z,100.00
2023-02-17T10:37:48.462Z,100.00
2023-02-17T10:40:22.952Z,100.00
2023-02-17T10:42:53.119Z,100.00
2023-02-17T10:45:25.533Z,100.00
2023-02-17T10:47:58.843Z,100.00
2023-02-17T10:50:26.567Z,100.00
2023-02-17T10:52:54.135Z,100.00
2023-02-17T10:55:34.164Z,100.00
2023-02-17T10:58:15.964Z,100.00
2023-02-17T11:00:43.360Z,100.00
2023-02-17T11:03:27.428Z,100.00
2023-02-17T11:05:56.114Z,100.00
2023-02-17T11:08:29.576Z,100.00
2023-02-17T11:11:01.235Z,100.00
2023-02-17T11:13:33.797Z,96.07
2023-02-17T11:16:01.196Z,97.80
2023-02-17T11:18:31.629Z,96.00
2023-02-17T11:21:16.818Z,94.71
2023-02-17T11:24:13.653Z,91.20
2023-02-17T11:26:40.558Z,86.33
2023-02-17T11:29:08.907Z,87.90
2023-02-17T11:31:41.361Z,85.03
2023-02-17T11:34:13.123Z,82.84
2023-02-17T11:36:40.172Z,81.97
2023-02-17T11:39:20.061Z,81.73
2023-02-17T11:41:47.017Z,82.83
2023-02-17T11:44:22.844Z,82.57
2023-02-17T11:46:58.626Z,83.08
2023-02-17T11:49:25.992Z,82.14
2023-02-17T11:52:12.116Z,83.27
2023-02-17T11:54:57.857Z,81.56
2023-02-17T11:57:27.880Z,81.86
2023-02-17T11:59:58.164Z,83.19
2023-02-17T12:02:37.406Z,82.29
2023-02-17T12:05:23.416Z,82.02
2023-02-17T12:07:50.452Z,83.22
2023-02-17T12:10:20.800Z,83.89
2023-02-17T12:13:05.520Z,84.19
2023-02-17T12:15:35.902Z,85.23
2023-02-17T12:18:08.882Z,84.46
2023-02-17T12:20:39.577Z,84.70
2023-02-17T12:23:19.190Z,87.74
2023-02-17T12:25:50.921Z,87.17
2023-02-17T12:28:27.076Z,87.79
2023-02-17T12:31:12.057Z,86.60
2023-02-17T12:33:47.983Z,89.08
2023-02-17T12:36:16.069Z,88.25
2023-02-17T12:38:46.473Z,88.89
2023-02-17T12:41:17.779Z,90.23
2023-02-17T12:43:49.235Z,91.14
2023-02-17T12:46:30.795Z,94.32
2023-02-17T12:49:02.993Z,95.83
2023-02-17T12:51:39.766Z,96.04
2023-02-17T12:54:12.393Z,97.50
2023-02-17T12:56:42.648Z,99.63
2023-02-17T12:59:15.112Z,100.00
2023-02-17T13:01:47.108Z,100.00
2023-02-17T13:04:17.266Z,100.00
2023-02-17T13:06:46.334Z,100.00
2023-02-17T13:09:15.671Z,100.00
2023-02-17T13:11:48.508Z,100.00
2023-02-17T13:14:21.494Z,100.00
2023-02-17T13:16:49.804Z,100.00
2023-02-17T13:19:27.506Z,100.00
2023-02-17T13:21:56.151Z,100.00
2023-02-17T13:24:34.520Z,100.00
2023-02-17T13:27:20.516Z,100.00
2023-02-17T13:29:47.614Z,100.00
2023-02-17T13:32:14.941Z,99.78
2023-02-17T13:34:46.281Z,100.00
2023-02-17T13:37:16.532Z,100.00
2023-02-17T13:39:43.643Z,100.00
2023-02-17T13:42:29.557Z,100.00
2023-02-17T13:44:57.465Z,100.00
2023-02-17T13:47:29.281Z,100.00
2023-02-17T13:49:57.113Z,100.00
2023-02-17T13:52:26.559Z,100.00
2023-02-17T13:55:04.153Z,99.91
2023-02-17T13:57:36.013Z,100.00
2023-02-17T14:00:18.253Z,100.00
2023-02-17T14:02:53.477Z,100.00
2023-02-17T14:05:27.671Z,100.00
2023-02-17T14:07:58.648Z,100.00
2023-02-17T14:10:26.774Z,100.00
2023-02-17T14:12:54.762Z,100.00
2023-02-17T14:15:23.654Z,100.00
2023-02-17T14:17:50.890Z,100.00
2023-02-17T14:20:44.360Z,100.00
2023-02-17T14:23:13.174Z,100.00
2023-02-17T14:25:41.610Z,100.00
2023-02-17T14:28:23.212Z,100.00
2023-02-17T14:30:51.363Z,100.00
2023-02-17T14:33:20.682Z,100.00
2023-02-17T14:35:52.132Z,100.00
2023-02-17T14:38:24.799Z,100.00
2023-02-17T14:40:53.529Z,100.00
2023-02-17T14:43:20.849Z,100.00
2023-02-17T14:45:48.210Z,100.00
2023-02-17T14:48:19.083Z,99.30
2023-02-17T14:50:46.694Z,96.87
2023-02-17T14:53:23.247Z,96.38
2023-02-17T14:55:53.733Z,96.51
2023-02-17T14:58:24.741Z,96.56
2023-02-17T15:00:51.946Z,97.52
2023-02-17T15:03:19.702Z,96.86
2023-02-17T15:05:49.405Z,95.29
2023-02-17T15:08:22.254Z,93.69
2023-02-17T15:10:50.587Z,92.26
2023-02-17T15:13:19.272Z,92.63
2023-02-17T15:15:49.776Z,90.46
2023-02-17T15:18:21.114Z,89.57
2023-02-17T15:20:52.316Z,89.99
2023-02-17T15:23:21.754Z,89.01
2023-02-17T15:25:49.485Z,87.00
2023-02-17T15:28:27.397Z,84.31
2023-02-17T15:30:55.841Z,83.54
2023-02-17T15:33:24.190Z,86.55
2023-02-17T15:35:56.165Z,86.09
2023-02-17T15:38:24.352Z,86.04
2023-02-17T15:40:51.391Z,87.11
2023-02-17T15:43:22.667Z,86.26
2023-02-17T15:45:50.535Z,85.64
2023-02-17T15:48:22.904Z,86.78
2023-02-17T15:50:51.352Z,85.33
2023-02-17T15:53:18.847Z,85.82
2023-02-17T15:55:46.780Z,86.75
2023-02-17T15:58:16.738Z,86.17
2023-02-17T16:00:46.167Z,86.43
2023-02-17T16:03:16.571Z,87.15
2023-02-17T16:05:44.239Z,86.53
2023-02-17T16:08:12.316Z,86.41
2023-02-17T16:10:42.137Z,87.19
2023-02-17T16:13:12.717Z,88.91
2023-02-17T16:15:39.919Z,88.13
2023-02-17T16:18:09.699Z,89.06
2023-02-17T16:20:36.716Z,90.74
2023-02-17T16:23:04.055Z,90.87
2023-02-17T16:25:33.212Z,91.69
2023-02-17T16:28:00.771Z,92.62
2023-02-17T16:30:31.139Z,94.16
2023-02-17T16:32:59.327Z,96.61
2023-02-17T16:35:27.971Z,99.54
2023-02-17T16:38:00.120Z,99.34
2023-02-17T16:40:28.841Z,98.43
2023-02-17T16:42:56.554Z,97.05
2023-02-17T16:45:36.376Z,96.44
2023-02-17T16:48:05.550Z,95.65
2023-02-17T16:50:34.816Z,94.95
2023-02-17T16:53:04.729Z,95.33
2023-02-17T16:55:35.721Z,96.17
2023-02-17T16:58:12.899Z,96.87
2023-02-17T17:00:40.588Z,96.31
2023-02-17T17:03:08.942Z,96.95
2023-02-17T17:05:37.182Z,98.93
2023-02-17T17:08:05.221Z,99.34
2023-02-17T17:10:33.635Z,100.00
2023-02-17T17:13:02.681Z,100.00
2023-02-17T17:15:30.179Z,100.00
2023-02-17T17:18:02.332Z,100.00
2023-02-17T17:20:34.538Z,100.00
2023-02-17T17:23:03.829Z,100.00
2023-02-17T17:25:32.328Z,100.00
2023-02-17T17:28:00.064Z,100.00
2023-02-17T17:30:29.285Z,100.00
2023-02-17T17:32:56.913Z,100.00
2023-02-17T17:35:24.308Z,100.00
2023-02-17T17:37:52.286Z,100.00
2023-02-17T17:40:22.893Z,100.00
2023-02-17T17:42:51.276Z,100.00
2023-02-17T17:45:19.970Z,100.00
2023-02-17T17:47:49.896Z,100.00
2023-02-17T17:50:20.075Z,100.00
2023-02-17T17:52:48.356Z,100.00
2023-02-17T17:55:16.194Z,100.00
2023-02-17T17:57:44.317Z,100.00
2023-02-17T18:00:16.782Z,100.00
2023-02-17T18:02:45.011Z,100.00
2023-02-17T18:05:13.611Z,100.00
2023-02-17T18:07:45.463Z,100.00
2023-02-17T18:10:13.840Z,100.00
2023-02-17T18:12:46.531Z,100.00
2023-02-17T18:15:15.361Z,100.00
2023-02-17T18:17:46.990Z,100.00
2023-02-17T18:20:14.862Z,100.00
2023-02-17T18:22:43.083Z,100.00
2023-02-17T18:25:11.488Z,100.00
2023-02-17T18:27:42.554Z,100.00
2023-02-17T18:30:13.110Z,100.00
2023-02-17T18:32:41.627Z,100.00
2023-02-17T18:35:10.723Z,100.00
2023-02-17T18:37:41.355Z,100.00
2023-02-17T18:40:14.174Z,100.00
2023-02-17T18:42:46.000Z,100.00
2023-02-17T18:45:14.637Z,100.00
2023-02-17T18:47:45.074Z,100.00
2023-02-17T18:50:13.861Z,100.00
2023-02-17T18:52:43.145Z,100.00
2023-02-17T18:55:11.389Z,100.00
2023-02-17T18:57:45.344Z,100.00
2023-02-17T19:00:14.009Z,100.00
2023-02-17T19:02:45.650Z,100.00
2023-02-17T19:05:13.680Z,100.00
2023-02-17T19:07:41.696Z,100.00
2023-02-17T19:10:12.989Z,100.00
2023-02-17T19:12:42.774Z,100.00
2023-02-17T19:15:11.326Z,100.00
2023-02-17T19:17:39.947Z,100.00
2023-02-17T19:20:08.327Z,100.00
2023-02-17T19:22:36.785Z,100.00
2023-02-17T19:25:04.955Z,100.00
2023-02-17T19:27:34.815Z,100.00
2023-02-17T19:30:02.657Z,100.00
2023-02-17T19:32:31.274Z,100.00
2023-02-17T19:34:58.588Z,100.00
2023-02-17T19:37:28.728Z,100.00
2023-02-17T19:39:56.988Z,100.00
2023-02-17T19:42:26.343Z,100.00
2023-02-17T19:44:54.370Z,100.00
2023-02-17T19:47:21.988Z,100.00
2023-02-17T19:49:52.017Z,100.00
2023-02-17T19:52:21.624Z,100.00
2023-02-17T19:54:50.637Z,100.00
2023-02-17T19:57:19.060Z,100.00
2023-02-17T19:59:46.796Z,100.00
2023-02-17T20:02:17.493Z,100.00
2023-02-17T20:04:45.486Z,100.00
2023-02-17T20:07:16.126Z,100.00
2023-02-17T20:09:44.202Z,100.00
2023-02-17T20:12:12.506Z,100.00
2023-02-17T20:14:40.411Z,100.00
2023-02-17T20:17:08.132Z,100.00
2023-02-17T20:19:39.172Z,100.00
2023-02-17T20:22:07.919Z,100.00
2023-02-17T20:24:39.062Z,100.00
2023-02-17T20:27:10.308Z,100.00
2023-02-17T20:29:38.078Z,100.00
2023-02-17T20:32:07.358Z,100.00
2023-02-17T20:34:41.085Z,100.00
2023-02-17T20:37:12.693Z,100.00
2023-02-17T20:39:41.500Z,100.00
2023-02-17T20:42:09.690Z,100.00
2023-02-17T20:44:40.035Z,100.00
2023-02-17T20:47:08.403Z,100.00
2023-02-17T20:49:37.808Z,100.00
2023-02-17T20:52:06.348Z,100.00
2023-02-17T20:54:34.816Z,100.00
2023-02-17T20:57:12.052Z,100.00
2023-02-17T20:59:40.106Z,100.00
2023-02-17T21:02:08.210Z,100.00
2023-02-17T21:04:39.038Z,100.00
2023-02-17T21:07:10.156Z,100.00
2023-02-17T21:09:37.513Z,100.00
2023-02-17T21:12:09.007Z,100.00
2023-02-17T21:14:36.471Z,100.00
2023-02-17T21:17:04.294Z,100.00
2023-02-17T21:19:31.877Z,100.00
2023-02-17T21:21:59.797Z,100.00
2023-02-17T21:24:27.471Z,100.00
2023-02-17T21:26:57.182Z,100.00
2023-02-17T21:29:26.414Z,100.00
2023-02-17T21:31:54.676Z,100.00
2023-02-17T21:34:21.857Z,100.00
2023-02-17T21:36:52.002Z,100.00
2023-02-17T21:39:20.108Z,100.00
2023-02-17T21:41:47.934Z,100.00
2023-02-17T21:44:33.399Z,100.00
2023-02-17T21:47:03.364Z,100.00
2023-02-17T21:49:30.418Z,100.00
2023-02-17T21:51:58.058Z,100.00
2023-02-17T21:54:25.469Z,100.00
2023-02-17T21:56:52.985Z,100.00
2023-02-17T21:59:22.715Z,100.00
2023-02-17T22:01:52.298Z,100.00
2023-02-17T22:04:20.032Z,100.00
2023-02-17T22:06:47.836Z,100.00
2023-02-17T22:09:18.069Z,100.00
2023-02-17T22:11:46.110Z,100.00
2023-02-17T22:14:14.577Z,100.00
2023-02-17T22:16:42.010Z,100.00
2023-02-17T22:19:10.670Z,100.00
2023-02-17T22:21:38.693Z,100.00
2023-02-17T22:24:05.855Z,100.00
2023-02-17T22:26:33.112Z,100.00
2023-02-17T22:29:00.061Z,100.00
2023-02-17T22:31:28.893Z,100.00
2023-02-17T22:33:56.978Z,100.00
2023-02-17T22:36:25.183Z,100.00
2023-02-17T22:38:52.684Z,100.00
2023-02-17T22:41:21.733Z,100.00
2023-02-17T22:43:48.903Z,100.00
2023-02-17T22:46:18.194Z,100.00
2023-02-17T22:48:46.336Z,100.00
2023-02-17T22:51:15.816Z,100.00
2023-02-17T22:53:44.980Z,100.00
2023-02-17T22:56:17.554Z,100.00
2023-02-17T22:58:44.489Z,100.00
2023-02-17T23:01:15.572Z,100.00
2023-02-17T23:03:42.584Z,100.00
2023-02-17T23:06:20.711Z,100.00
2023-02-17T23:08:47.904Z,100.00
2023-02-17T23:11:19.525Z,100.00
2023-02-17T23:13:46.372Z,100.00
2023-02-17T23:16:18.666Z,100.00
2023-02-17T23:18:45.538Z,100.00
2023-02-17T23:21:13.382Z,100.00
2023-02-17T23:23:40.264Z,100.00
2023-02-17T23:26:07.941Z,100.00
2023-02-17T23:28:35.023Z,100.00
2023-02-17T23:31:02.350Z,100.00
2023-02-17T23:33:29.263Z,100.00
2023-02-17T23:35:56.652Z,100.00
2023-02-17T23:38:23.775Z,100.00
2023-02-17T23:40:53.688Z,100.00
2023-02-17T23:43:21.718Z,100.00
2023-02-17T23:45:49.362Z,100.00
2023-02-17T23:48:16.696Z,100.00
2023-02-17T23:50:43.957Z,100.00
2023-02-17T23:53:10.870Z,100.00
2023-02-17T23:55:40.108Z,100.00
2023-02-17T23:58:07.032Z,100.00
